Wetterdaten: Woche 21.09.15 - 27.09.15 (KW39)
Datum Zeit Temp. A. Feuchte A. Luftdruck Regen Wind Richtung Taupunkt Windchill Windben
21.09.2015 00:00 13,5 C 66 % 1019,7 hPa 0,0 l/m 4,5 km/h N 7,2 C 13,5 C 15,7 km/h
21.09.2015 01:00 12,9 C 65 % 1019,3 hPa 0,0 l/m 4,2 km/h N 6,5 C 12,9 C 15,7 km/h
21.09.2015 02:00 12,4 C 67 % 1019,2 hPa 0,0 l/m 2,8 km/h N 6,5 C 12,4 C 14,5 km/h
21.09.2015 03:00 11,9 C 71 % 1018,8 hPa 0,0 l/m 2,8 km/h N 6,8 C 11,9 C 14,9 km/h
21.09.2015 04:00 12,0 C 71 % 1018,5 hPa 0,0 l/m 3,9 km/h N 7,0 C 12,0 C 15,3 km/h
21.09.2015 05:00 11,9 C 71 % 1018,3 hPa 0,0 l/m 3,0 km/h N 6,7 C 11,9 C 14,1 km/h
21.09.2015 06:00 11,8 C 71 % 1018,3 hPa 0,0 l/m 2,3 km/h N 6,7 C 11,8 C 12,5 km/h
21.09.2015 07:00 11,9 C 71 % 1018,5 hPa 0,0 l/m 1,8 km/h N 6,8 C 11,9 C 10,5 km/h
21.09.2015 08:00 13,1 C 67 % 1018,6 hPa 0,0 l/m 3,4 km/h N 7,2 C 13,1 C 14,5 km/h
21.09.2015 09:00 14,7 C 63 % 1018,5 hPa 0,0 l/m 6,2 km/h N 7,6 C 14,4 C 18,5 km/h
21.09.2015 10:00 15,8 C 62 % 1018,0 hPa 0,0 l/m 6,9 km/h N 8,4 C 15,5 C 19,3 km/h
21.09.2015 11:00 16,7 C 58 % 1017,7 hPa 0,0 l/m 6,8 km/h N 8,4 C 16,4 C 22,9 km/h
21.09.2015 12:00 17,0 C 56 % 1017,3 hPa 0,0 l/m 5,7 km/h N 8,3 C 17,0 C 17,7 km/h
21.09.2015 13:00 17,5 C 55 % 1016,8 hPa 0,0 l/m 4,8 km/h N 8,4 C 17,5 C 17,3 km/h
21.09.2015 14:00 18,0 C 54 % 1016,1 hPa 0,0 l/m 5,4 km/h N 8,5 C 17,9 C 18,9 km/h
21.09.2015 15:00 17,7 C 56 % 1015,7 hPa 0,0 l/m 3,8 km/h N 8,7 C 17,7 C 12,1 km/h
21.09.2015 16:00 17,7 C 55 % 1015,4 hPa 0,0 l/m 1,8 km/h N 8,5 C 17,7 C 9,2 km/h
21.09.2015 17:00 17,2 C 54 % 1015,4 hPa 0,0 l/m 1,7 km/h N 7,9 C 17,2 C 6,8 km/h
21.09.2015 18:00 16,1 C 59 % 1015,3 hPa 0,0 l/m 0,0 km/h N 8,0 C 16,1 C 0,0 km/h
21.09.2015 19:00 13,8 C 67 % 1015,3 hPa 0,0 l/m 0,0 km/h N 7,7 C 13,8 C 0,0 km/h
21.09.2015 20:00 11,6 C 74 % 1015,7 hPa 0,0 l/m 0,0 km/h N 7,1 C 11,6 C 0,0 km/h
21.09.2015 21:00 10,1 C 79 % 1015,7 hPa 0,0 l/m 0,0 km/h N 6,6 C 10,1 C 0,0 km/h
21.09.2015 22:00 9,2 C 81 % 1015,5 hPa 0,0 l/m 0,0 km/h N 6,0 C 9,2 C 0,0 km/h
21.09.2015 23:00 8,6 C 82 % 1015,0 hPa 0,0 l/m 0,0 km/h N 5,7 C 8,6 C 0,0 km/h
22.09.2015 00:00 7,9 C 82 % 1014,5 hPa 0,0 l/m 0,0 km/h N 5,1 C 7,9 C 0,0 km/h
22.09.2015 01:00 7,3 C 83 % 1013,8 hPa 0,0 l/m 0,0 km/h N 4,5 C 7,3 C 0,0 km/h
22.09.2015 02:00 6,8 C 83 % 1013,3 hPa 0,0 l/m 0,0 km/h N 4,1 C 6,8 C 0,0 km/h
22.09.2015 03:00 6,4 C 83 % 1012,8 hPa 0,0 l/m 0,0 km/h N 3,6 C 6,4 C 0,0 km/h
22.09.2015 04:00 5,9 C 83 % 1012,4 hPa 0,0 l/m 0,0 km/h N 3,2 C 5,9 C 0,0 km/h
22.09.2015 05:00 5,4 C 83 % 1012,1 hPa 0,0 l/m 0,0 km/h N 2,7 C 5,4 C 0,0 km/h
22.09.2015 06:00 5,2 C 83 % 1012,1 hPa 0,0 l/m 0,0 km/h N 2,4 C 5,2 C 0,0 km/h
22.09.2015 07:00 5,3 C 82 % 1012,0 hPa 0,0 l/m 0,0 km/h N 2,4 C 5,3 C 0,0 km/h
22.09.2015 08:00 7,6 C 81 % 1011,6 hPa 0,0 l/m 0,3 km/h N 4,5 C 7,6 C 4,4 km/h
22.09.2015 09:00 10,9 C 80 % 1011,0 hPa 0,0 l/m 0,6 km/h N 7,6 C 10,9 C 6,4 km/h
22.09.2015 10:00 15,5 C 73 % 1010,7 hPa 0,0 l/m 1,2 km/h N 10,6 C 15,5 C 6,4 km/h
22.09.2015 11:00 19,6 C 56 % 1009,9 hPa 0,0 l/m 0,9 km/h N 10,6 C 19,6 C 7,6 km/h
22.09.2015 12:00 22,9 C 41 % 1008,9 hPa 0,0 l/m 2,6 km/h N 8,9 C 22,9 C 14,1 km/h
22.09.2015 13:00 23,7 C 38 % 1008,0 hPa 0,0 l/m 3,9 km/h N 8,3 C 23,7 C 14,9 km/h
22.09.2015 14:00 23,1 C 39 % 1007,3 hPa 0,0 l/m 4,9 km/h N 8,5 C 23,1 C 16,9 km/h
22.09.2015 15:00 22,6 C 40 % 1006,8 hPa 0,0 l/m 5,6 km/h N 8,3 C 22,6 C 18,1 km/h
22.09.2015 16:00 21,6 C 41 % 1006,4 hPa 0,0 l/m 5,9 km/h N 7,6 C 21,6 C 18,9 km/h
22.09.2015 17:00 20,5 C 42 % 1006,3 hPa 0,0 l/m 4,0 km/h N 7,2 C 20,5 C 17,3 km/h
22.09.2015 18:00 19,6 C 45 % 1005,9 hPa 0,0 l/m 1,8 km/h N 7,2 C 19,6 C 11,3 km/h
22.09.2015 19:00 18,4 C 51 % 1005,9 hPa 0,0 l/m 2,5 km/h N 8,0 C 18,4 C 14,5 km/h
22.09.2015 20:00 17,6 C 57 % 1005,8 hPa 0,0 l/m 4,5 km/h N 8,9 C 17,6 C 17,3 km/h
22.09.2015 21:00 16,8 C 60 % 1005,6 hPa 0,0 l/m 2,4 km/h N 8,8 C 16,8 C 14,9 km/h
22.09.2015 22:00 16,0 C 62 % 1005,5 hPa 0,0 l/m 0,6 km/h N 8,8 C 16,0 C 6,8 km/h
22.09.2015 23:00 15,1 C 66 % 1005,1 hPa 0,0 l/m 0,3 km/h N 8,8 C 15,1 C 6,0 km/h
23.09.2015 00:00 14,5 C 70 % 1005,0 hPa 0,0 l/m 0,4 km/h N 9,0 C 14,5 C 5,6 km/h
23.09.2015 01:00 13,8 C 73 % 1004,9 hPa 0,0 l/m 0,1 km/h N 9,0 C 13,8 C 3,2 km/h
23.09.2015 02:00 13,0 C 75 % 1004,6 hPa 0,0 l/m 0,0 km/h N 8,7 C 13,0 C 1,2 km/h
23.09.2015 03:00 11,9 C 78 % 1004,4 hPa 0,0 l/m 0,0 km/h N 8,0 C 11,9 C 0,0 km/h
23.09.2015 04:00 11,7 C 81 % 1004,5 hPa 0,0 l/m 0,0 km/h N 8,5 C 11,7 C 0,0 km/h
23.09.2015 05:00 11,7 C 82 % 1004,6 hPa 0,0 l/m 0,0 km/h N 8,6 C 11,7 C 0,0 km/h
23.09.2015 06:00 11,4 C 82 % 1005,0 hPa 0,0 l/m 0,0 km/h N 8,4 C 11,4 C 0,0 km/h
23.09.2015 07:00 10,9 C 82 % 1005,7 hPa 0,0 l/m 0,0 km/h N 8,0 C 10,9 C 0,8 km/h
23.09.2015 08:00 12,5 C 82 % 1006,3 hPa 0,0 l/m 0,1 km/h N 9,5 C 12,5 C 2,4 km/h
23.09.2015 09:00 15,0 C 77 % 1007,0 hPa 0,0 l/m 1,9 km/h N 10,9 C 15,0 C 10,4 km/h
23.09.2015 10:00 18,1 C 65 % 1007,7 hPa 0,0 l/m 6,8 km/h N 11,4 C 17,5 C 21,3 km/h
23.09.2015 11:00 19,1 C 60 % 1008,3 hPa 0,0 l/m 3,2 km/h N 11,0 C 19,1 C 18,5 km/h
23.09.2015 12:00 16,9 C 63 % 1009,3 hPa 0,0 l/m 8,7 km/h N 9,9 C 15,8 C 24,9 km/h
23.09.2015 13:00 15,4 C 66 % 1010,4 hPa 0,0 l/m 9,1 km/h N 9,1 C 13,9 C 27,4 km/h
23.09.2015 14:00 14,4 C 68 % 1010,8 hPa 0,0 l/m 6,8 km/h N 8,4 C 14,1 C 22,9 km/h
23.09.2015 15:00 13,5 C 71 % 1011,3 hPa 0,0 l/m 5,0 km/h N 8,3 C 13,5 C 19,7 km/h
23.09.2015 16:00 13,0 C 74 % 1011,6 hPa 0,0 l/m 5,0 km/h N 8,4 C 12,9 C 23,3 km/h
23.09.2015 17:00 12,5 C 76 % 1012,1 hPa 0,0 l/m 7,1 km/h N 8,4 C 11,7 C 24,9 km/h
23.09.2015 18:00 12,3 C 78 % 1012,7 hPa 0,0 l/m 9,7 km/h N 8,5 C 10,3 C 29,0 km/h
23.09.2015 19:00 11,9 C 79 % 1013,4 hPa 0,0 l/m 7,9 km/h N 8,3 C 11,0 C 26,1 km/h
23.09.2015 20:00 11,5 C 81 % 1014,3 hPa 0,3 l/m 5,4 km/h N 8,3 C 11,3 C 21,7 km/h
23.09.2015 21:00 11,7 C 81 % 1014,6 hPa 0,3 l/m 6,4 km/h N 8,5 C 11,5 C 21,3 km/h
23.09.2015 22:00 11,9 C 79 % 1015,0 hPa 0,0 l/m 5,4 km/h N 8,4 C 11,7 C 20,1 km/h
23.09.2015 23:00 11,5 C 80 % 1015,5 hPa 0,3 l/m 5,0 km/h N 8,2 C 11,4 C 22,1 km/h
24.09.2015 00:00 11,3 C 81 % 1015,8 hPa 0,0 l/m 6,6 km/h N 8,1 C 10,8 C 18,5 km/h
24.09.2015 01:00 11,7 C 79 % 1016,1 hPa 0,0 l/m 5,2 km/h N 8,2 C 11,7 C 18,5 km/h
24.09.2015 02:00 11,8 C 78 % 1016,3 hPa 0,0 l/m 3,8 km/h N 8,1 C 11,8 C 16,5 km/h
24.09.2015 03:00 11,8 C 78 % 1016,0 hPa 0,0 l/m 9,8 km/h N 8,0 C 9,8 C 24,5 km/h
24.09.2015 04:00 11,9 C 77 % 1016,4 hPa 0,0 l/m 9,2 km/h N 7,9 C 10,1 C 22,5 km/h
24.09.2015 05:00 11,8 C 76 % 1016,7 hPa 0,0 l/m 9,3 km/h N 7,7 C 10,0 C 25,7 km/h
24.09.2015 06:00 12,0 C 75 % 1017,2 hPa 0,0 l/m 8,0 km/h N 7,6 C 10,9 C 22,9 km/h
24.09.2015 07:00 12,2 C 74 % 1017,8 hPa 0,0 l/m 6,3 km/h N 7,6 C 11,7 C 19,3 km/h
24.09.2015 08:00 12,4 C 74 % 1018,0 hPa 0,0 l/m 8,8 km/h N 7,8 C 11,0 C 20,9 km/h
24.09.2015 09:00 12,7 C 74 % 1018,2 hPa 0,0 l/m 11,6 km/h N 8,1 C 9,9 C 24,5 km/h
24.09.2015 10:00 13,2 C 73 % 1018,5 hPa 0,0 l/m 11,3 km/h N 8,4 C 10,5 C 26,1 km/h
24.09.2015 11:00 13,5 C 73 % 1018,5 hPa 0,0 l/m 11,1 km/h N 8,6 C 10,9 C 24,9 km/h
24.09.2015 12:00 14,1 C 71 % 1018,3 hPa 0,0 l/m 11,8 km/h N 8,9 C 11,3 C 28,6 km/h
24.09.2015 13:00 14,3 C 71 % 1018,2 hPa 0,0 l/m 12,5 km/h N 9,1 C 11,2 C 29,0 km/h
24.09.2015 14:00 14,5 C 71 % 1017,7 hPa 0,0 l/m 14,0 km/h N 9,2 C 11,0 C 33,4 km/h
24.09.2015 15:00 14,4 C 71 % 1017,5 hPa 0,0 l/m 12,9 km/h N 9,1 C 11,2 C 31,4 km/h
24.09.2015 16:00 14,3 C 70 % 1017,3 hPa 0,0 l/m 12,7 km/h N 8,9 C 11,1 C 30,6 km/h
24.09.2015 17:00 14,3 C 70 % 1017,2 hPa 0,0 l/m 13,3 km/h N 9,0 C 11,0 C 31,4 km/h
24.09.2015 18:00 13,9 C 71 % 1017,3 hPa 0,0 l/m 12,3 km/h N 8,8 C 11,0 C 31,8 km/h
24.09.2015 19:00 14,0 C 72 % 1017,4 hPa 0,0 l/m 11,2 km/h N 9,0 C 11,4 C 26,5 km/h
24.09.2015 20:00 14,4 C 71 % 1017,6 hPa 0,0 l/m 10,6 km/h N 9,1 C 12,1 C 26,1 km/h
24.09.2015 21:00 14,8 C 70 % 1017,7 hPa 0,0 l/m 13,7 km/h N 9,3 C 11,4 C 31,8 km/h
24.09.2015 22:00 14,8 C 70 % 1017,4 hPa 0,0 l/m 12,6 km/h N 9,4 C 11,8 C 28,6 km/h
24.09.2015 23:00 14,8 C 70 % 1017,3 hPa 0,0 l/m 13,6 km/h N 9,4 C 11,4 C 30,6 km/h
25.09.2015 00:00 14,9 C 69 % 1017,3 hPa 0,0 l/m 16,2 km/h N 9,2 C 10,6 C 31,8 km/h
25.09.2015 01:00 14,9 C 68 % 1017,3 hPa 0,0 l/m 17,3 km/h N 9,1 C 10,4 C 33,8 km/h
25.09.2015 02:00 14,9 C 68 % 1017,3 hPa 0,0 l/m 16,8 km/h N 9,1 C 10,5 C 34,2 km/h
25.09.2015 03:00 14,9 C 68 % 1016,8 hPa 0,0 l/m 18,0 km/h N 9,1 C 10,1 C 37,4 km/h
25.09.2015 04:00 14,6 C 69 % 1016,8 hPa 0,0 l/m 17,1 km/h N 9,1 C 10,1 C 33,8 km/h
25.09.2015 05:00 14,3 C 72 % 1016,6 hPa 0,0 l/m 18,3 km/h N 9,2 C 9,3 C 37,4 km/h
25.09.2015 06:00 14,0 C 74 % 1016,7 hPa 0,0 l/m 17,3 km/h N 9,3 C 9,3 C 38,2 km/h
25.09.2015 07:00 13,7 C 76 % 1017,0 hPa 0,0 l/m 15,7 km/h N 9,4 C 9,3 C 33,4 km/h
25.09.2015 08:00 13,6 C 75 % 1017,0 hPa 0,0 l/m 17,0 km/h N 9,3 C 8,8 C 34,2 km/h
25.09.2015 09:00 12,9 C 79 % 1017,5 hPa 0,8 l/m 14,0 km/h N 9,4 C 9,1 C 28,6 km/h
25.09.2015 10:00 13,3 C 78 % 1017,8 hPa 0,3 l/m 14,5 km/h N 9,5 C 9,3 C 31,4 km/h
25.09.2015 11:00 13,3 C 78 % 1017,8 hPa 0,0 l/m 14,6 km/h N 9,4 C 9,2 C 31,0 km/h
25.09.2015 12:00 13,3 C 78 % 1017,6 hPa 0,3 l/m 14,4 km/h N 9,6 C 9,4 C 30,6 km/h
25.09.2015 13:00 12,9 C 81 % 1017,6 hPa 0,5 l/m 9,2 km/h N 9,6 C 11,2 C 23,3 km/h
25.09.2015 14:00 13,1 C 80 % 1017,4 hPa 0,0 l/m 9,6 km/h N 9,8 C 11,2 C 23,7 km/h
25.09.2015 15:00 12,9 C 81 % 1017,4 hPa 0,5 l/m 10,1 km/h N 9,8 C 10,8 C 25,8 km/h
25.09.2015 16:00 12,9 C 82 % 1017,4 hPa 2,1 l/m 6,3 km/h N 9,9 C 12,3 C 18,9 km/h
25.09.2015 17:00 12,7 C 82 % 1017,3 hPa 2,1 l/m 6,8 km/h N 9,7 C 12,1 C 18,9 km/h
25.09.2015 18:00 12,7 C 82 % 1017,4 hPa 2,1 l/m 4,9 km/h N 9,7 C 12,7 C 15,7 km/h
25.09.2015 19:00 12,8 C 82 % 1017,7 hPa 2,6 l/m 8,1 km/h N 9,8 C 11,7 C 19,3 km/h
25.09.2015 20:00 12,9 C 82 % 1018,2 hPa 2,9 l/m 7,8 km/h N 9,9 C 12,1 C 21,3 km/h
25.09.2015 21:00 12,9 C 82 % 1018,4 hPa 2,6 l/m 8,1 km/h N 10,0 C 11,8 C 21,3 km/h
25.09.2015 22:00 13,0 C 82 % 1018,8 hPa 2,3 l/m 7,3 km/h N 10,0 C 12,4 C 20,9 km/h
25.09.2015 23:00 13,1 C 82 % 1018,7 hPa 2,1 l/m 9,3 km/h N 10,1 C 11,4 C 22,1 km/h
26.09.2015 00:00 13,1 C 82 % 1018,7 hPa 1,8 l/m 8,7 km/h N 10,1 C 11,8 C 25,0 km/h
26.09.2015 01:00 13,0 C 82 % 1018,9 hPa 2,1 l/m 5,7 km/h N 10,0 C 12,9 C 18,9 km/h
26.09.2015 02:00 12,9 C 82 % 1018,9 hPa 1,3 l/m 5,8 km/h N 9,9 C 12,6 C 16,9 km/h
26.09.2015 03:00 12,9 C 82 % 1018,8 hPa 0,5 l/m 5,9 km/h N 9,9 C 12,9 C 17,3 km/h
26.09.2015 04:00 12,9 C 82 % 1018,6 hPa 0,3 l/m 6,2 km/h N 9,9 C 12,6 C 18,9 km/h
26.09.2015 05:00 13,0 C 82 % 1018,9 hPa 0,0 l/m 6,8 km/h N 10,0 C 12,6 C 19,7 km/h
26.09.2015 06:00 12,8 C 82 % 1018,9 hPa 0,0 l/m 8,0 km/h N 9,8 C 11,8 C 11,6 km/h
26.09.2015 07:00 12,9 C 82 % 1019,3 hPa 0,0 l/m 7,8 km/h N 9,9 C 12,1 C 10,4 km/h
26.09.2015 08:00 13,4 C 81 % 1019,6 hPa 0,0 l/m 8,9 km/h N 10,2 C 11,9 C 21,3 km/h
26.09.2015 09:00 13,6 C 81 % 1020,1 hPa 0,0 l/m 6,4 km/h N 10,4 C 13,3 C 17,7 km/h
26.09.2015 10:00 14,0 C 81 % 1020,4 hPa 0,0 l/m 6,5 km/h N 10,7 C 13,8 C 18,9 km/h
26.09.2015 11:00 14,8 C 79 % 1020,4 hPa 0,0 l/m 6,8 km/h N 11,1 C 14,5 C 18,9 km/h
26.09.2015 12:00 15,8 C 76 % 1020,2 hPa 0,0 l/m 8,5 km/h N 11,5 C 14,7 C 21,3 km/h
26.09.2015 13:00 16,0 C 71 % 1020,1 hPa 0,0 l/m 8,4 km/h N 10,8 C 15,0 C 21,7 km/h
26.09.2015 14:00 16,0 C 70 % 1020,2 hPa 0,0 l/m 6,4 km/h N 10,6 C 15,8 C 16,9 km/h
26.09.2015 15:00 16,3 C 57 % 1020,2 hPa 0,0 l/m 7,9 km/h N 7,6 C 15,5 C 20,1 km/h
26.09.2015 16:00 15,8 C 55 % 1020,6 hPa 0,0 l/m 6,1 km/h N 6,9 C 15,7 C 17,7 km/h
26.09.2015 17:00 15,4 C 56 % 1020,9 hPa 0,0 l/m 4,6 km/h N 6,6 C 15,4 C 14,9 km/h
26.09.2015 18:00 14,9 C 60 % 1021,4 hPa 0,0 l/m 0,4 km/h N 7,1 C 14,9 C 6,4 km/h
26.09.2015 19:00 14,3 C 63 % 1022,0 hPa 0,0 l/m 0,6 km/h N 7,4 C 14,3 C 6,0 km/h
26.09.2015 20:00 13,8 C 65 % 1022,6 hPa 0,0 l/m 0,9 km/h N 7,3 C 13,8 C 6,4 km/h
26.09.2015 21:00 13,4 C 68 % 1022,9 hPa 0,0 l/m 0,8 km/h N 7,6 C 13,4 C 5,6 km/h
26.09.2015 22:00 13,1 C 69 % 1023,1 hPa 0,0 l/m 1,7 km/h N 7,5 C 13,1 C 8,0 km/h
26.09.2015 23:00 12,9 C 69 % 1023,3 hPa 0,0 l/m 1,7 km/h N 7,3 C 12,9 C 8,9 km/h
27.09.2015 00:00 12,5 C 69 % 1023,6 hPa 0,0 l/m 3,0 km/h N 6,9 C 12,5 C 11,7 km/h
27.09.2015 01:00 12,2 C 70 % 1023,8 hPa 0,0 l/m 2,0 km/h N 6,8 C 12,2 C 9,3 km/h
27.09.2015 02:00 11,7 C 72 % 1023,8 hPa 0,0 l/m 2,8 km/h N 6,7 C 11,7 C 10,9 km/h
27.09.2015 03:00 11,8 C 72 % 1023,8 hPa 0,0 l/m 4,2 km/h N 6,9 C 11,8 C 12,9 km/h
27.09.2015 04:00 12,1 C 72 % 1024,2 hPa 0,0 l/m 3,4 km/h N 7,2 C 12,1 C 12,5 km/h
27.09.2015 05:00 11,9 C 72 % 1024,5 hPa 0,0 l/m 4,7 km/h N 7,1 C 11,9 C 14,1 km/h
27.09.2015 06:00 12,1 C 72 % 1024,7 hPa 0,0 l/m 5,0 km/h N 7,2 C 12,1 C 14,5 km/h
27.09.2015 07:00 11,9 C 72 % 1025,2 hPa 0,0 l/m 4,7 km/h N 7,1 C 11,9 C 12,9 km/h
27.09.2015 08:00 12,0 C 74 % 1025,7 hPa 0,0 l/m 5,4 km/h N 7,4 C 12,0 C 15,3 km/h
27.09.2015 09:00 13,1 C 71 % 1026,2 hPa 0,0 l/m 5,9 km/h N 8,0 C 13,1 C 14,1 km/h
27.09.2015 10:00 13,9 C 69 % 1026,6 hPa 0,0 l/m 6,9 km/h N 8,3 C 13,6 C 17,3 km/h
27.09.2015 11:00 14,6 C 68 % 1026,6 hPa 0,0 l/m 7,9 km/h N 8,8 C 13,8 C 20,5 km/h
27.09.2015 12:00 14,8 C 66 % 1026,6 hPa 0,0 l/m 5,9 km/h N 8,5 C 14,8 C 16,9 km/h
27.09.2015 13:00 14,9 C 63 % 1026,7 hPa 0,0 l/m 5,6 km/h N 7,9 C 14,7 C 17,3 km/h
27.09.2015 14:00 15,6 C 57 % 1026,5 hPa 0,0 l/m 7,3 km/h N 7,2 C 15,2 C 20,5 km/h
27.09.2015 15:00 15,4 C 58 % 1026,6 hPa 0,0 l/m 6,2 km/h N 7,1 C 15,2 C 16,1 km/h
27.09.2015 16:00 15,9 C 54 % 1026,7 hPa 0,0 l/m 6,9 km/h N 6,6 C 15,5 C 19,3 km/h
27.09.2015 17:00 15,6 C 53 % 1027,0 hPa 0,0 l/m 5,3 km/h N 6,0 C 15,4 C 17,3 km/h
27.09.2015 18:00 14,8 C 56 % 1027,4 hPa 0,0 l/m 1,4 km/h N 6,1 C 14,8 C 8,9 km/h
27.09.2015 19:00 13,9 C 60 % 1028,1 hPa 0,0 l/m 0,3 km/h N 6,1 C 13,9 C 4,8 km/h
27.09.2015 20:00 13,9 C 59 % 1028,7 hPa 0,0 l/m 1,5 km/h N 5,9 C 13,9 C 8,9 km/h
27.09.2015 21:00 14,0 C 58 % 1029,1 hPa 0,0 l/m 2,9 km/h N 5,9 C 14,0 C 11,3 km/h
27.09.2015 22:00 13,6 C 61 % 1029,2 hPa 0,0 l/m 2,3 km/h N 6,1 C 13,6 C 10,9 km/h
27.09.2015 23:00 13,2 C 63 % 1029,4 hPa 0,0 l/m 3,1 km/h N 6,2 C 13,2 C 10,9 km/h
Min-Datum _ 22.09.15 22.09.15 23.09.15 - 21.09.15 - 22.09.15 22.09.15 21.09.15
_ Min-Zeit 06:30 13:15 02:45 - 17:45 - 06:30 06:30 18:00
Minimum _ 5,1 C 37 % 1004,4 hPa - 0,0 km/h - 2,3 C 5,1 C 0,0 km/h
Max-Datum _ 22.09.15 22.09.15 27.09.15 25.09.15 25.09.15 - 23.09.15 22.09.15 25.09.15
_ Max-Zeit 13:15 00:45 23:15 20:30 05:15 - 10:00 13:15 06:00
Maximum _ 23,9 C 83 % 1029,4 hPa 2,9 l/m 21,3 km/h
N
- 11,8 C 23,9 C 41,8 km/h
N
Durchschnitt _ 13,7 C 70 % 1016,7 hPa #27,8 l/m 5,9 km/h N 8,2 C 12,8 C 16,7 km/h